Nakhchivan — 9HHK8 — position and weather

sailwx.info

Track history (hours):
 
Tides and Currents Weather Stations Pressure Air Temp Water Temp Dewpoint Dewpoint Depression Visibility Wind Speed Wind Dir Waves Ship Positions

Nakhchivan

Last reported at 2015-May-15 14:33 UTC. Time now 2015-May-26 09:44 UTC.
Position N 40°36' E 018°19'.
Warning: this ship's position is 10 days out of date.

Length 139 m; draft 4.6 m.

Type: Cargo ship. MMSI: 215983000.

Date/timePositionNaut miles runAvg speedWind from/ knotsBaromVisibWave heightAir tempDewpointWater temp
2015-May-15 14:33N 40°36' E 018°19'9 9.0
2015-May-15 13:33N 40°29' E 018°26'9 9.3
2015-May-15 12:33N 40°21' E 018°33'9 9.3
2015-May-15 11:33N 40°13' E 018°39'11 9.3
2015-May-15 10:22N 40°04' E 018°46'7 8.9
2015-May-15 09:34N 39°58' E 018°51'8 8.4
2015-May-15 08:33N 39°50' E 018°57'10 9.7
2015-May-15 07:31N 39°42' E 019°04'9 9.7
2015-May-15 06:33N 39°34' E 019°10'9 9.5
2015-May-15 05:33N 39°26' E 019°16'12 9.5
2015-May-15 04:17N 39°15' E 019°24'7 9.6
2015-May-15 03:33N 39°10' E 019°30'  
2015-May-09 18:29N 46°35' E 031°25'7 7.8
2015-May-09 17:33N 46°35' E 031°36'10 8.9
2015-May-09 16:28N 46°36' E 031°50'7 8.2
2015-May-09 15:33N 46°42' E 031°56'8 7.7
2015-May-09 14:34N 46°50' E 031°56'7 6.7
2015-May-09 13:33N 46°56' E 031°59'1 1.4
2015-May-09 12:33N 46°56' E 031°57'0 0.0
2015-May-09 11:31N 46°56' E 031°57'0 0.0
2015-May-09 10:31N 46°56' E 031°57'0 0.0
2015-May-09 09:31N 46°56' E 031°57'0 0.0
2015-May-09 08:32N 46°56' E 031°57'0 0.0
2015-May-09 07:32N 46°56' E 031°57'0 0.0
2015-May-09 06:32N 46°56' E 031°57'0 0.0
2015-May-09 05:33N 46°56' E 031°57'0 0.0
2015-May-09 04:33N 46°56' E 031°57'0 0.0
2015-May-09 03:33N 46°56' E 031°57'0 0.0
2015-May-09 02:29N 46°56' E 031°57'0 0.0
2015-May-09 01:31N 46°56' E 031°57'0 0.0
2015-May-09 00:33N 46°56' E 031°57'0 0.0
2015-May-08 23:32N 46°56' E 031°57'0 0.0
2015-May-08 22:32N 46°56' E 031°57'0 0.0
2015-May-08 21:31N 46°56' E 031°57'0 0.0
2015-May-08 20:31N 46°56' E 031°57'0 0.0
2015-May-08 19:31N 46°56' E 031°57'0 0.0
2015-May-08 18:31N 46°56' E 031°57'0 0.0
2015-May-08 17:31N 46°56' E 031°57'0 0.0
2015-May-08 16:31N 46°56' E 031°57'0 0.0
2015-May-08 15:33N 46°56' E 031°57'0 0.0
2015-May-08 14:33N 46°56' E 031°57'0 0.0
2015-May-08 13:32N 46°56' E 031°57'0 0.0
2015-May-08 12:29N 46°56' E 031°57'0 0.0
2015-May-08 11:29N 46°56' E 031°57'0 0.0
2015-May-08 10:33N 46°56' E 031°57'0 0.0
2015-May-08 09:32N 46°56' E 031°57'0 0.0
2015-May-08 08:32N 46°56' E 031°57'0 0.0
2015-May-08 07:32N 46°56' E 031°57'0 0.0
2015-May-08 06:32N 46°56' E 031°57'0 0.0
2015-May-08 05:32N 46°56' E 031°57'0 0.0
2015-May-08 04:31N 46°56' E 031°57'0 0.0
2015-May-08 03:32N 46°56' E 031°57'0 0.0
2015-May-08 02:33N 46°56' E 031°57'0 0.0
2015-May-08 01:32N 46°56' E 031°57'0 0.0
2015-May-08 00:22N 46°56' E 031°57'0 0.0
2015-May-07 23:28N 46°56' E 031°57'0 0.0
2015-May-07 22:31N 46°56' E 031°57'0 0.0
2015-May-07 21:31N 46°56' E 031°57'0 0.0
2015-May-07 20:31N 46°56' E 031°57'0 0.0
2015-May-07 19:33N 46°56' E 031°57'0 0.0
2015-May-07 18:31N 46°56' E 031°57'0 0.0
2015-May-07 17:33N 46°56' E 031°57'0 0.0
2015-May-07 16:30N 46°56' E 031°57'0 0.0
2015-May-07 15:33N 46°56' E 031°57'0 0.0
2015-May-07 14:33N 46°56' E 031°57'0 0.0
2015-May-07 13:32N 46°56' E 031°57'0 0.0
2015-May-07 12:30N 46°56' E 031°57'0 0.0
2015-May-07 11:32N 46°56' E 031°57'0 0.0
2015-May-07 10:31N 46°56' E 031°57'0 0.0
2015-May-07 09:33N 46°56' E 031°57'0 0.0
2015-May-07 08:31N 46°56' E 031°57'0 0.0
2015-May-07 07:32N 46°56' E 031°57'0 0.0
2015-May-07 06:31N 46°56' E 031°57'0 0.0
2015-May-07 05:31N 46°56' E 031°57'0 0.0
2015-May-07 04:31N 46°56' E 031°57'0 0.0
2015-May-07 03:33N 46°56' E 031°57'0 0.0
2015-May-07 02:33N 46°56' E 031°57'0 0.0
2015-May-07 01:33N 46°56' E 031°57'0 0.0
2015-May-07 00:27N 46°56' E 031°57'0 0.0
2015-May-06 23:32N 46°56' E 031°57'0 0.0
2015-May-06 22:30N 46°56' E 031°57'0 0.0
2015-May-06 21:29N 46°56' E 031°57'0 0.0
2015-May-06 20:33N 46°56' E 031°57'0 0.0
2015-May-06 19:31N 46°56' E 031°57'0 0.0
2015-May-06 18:32N 46°56' E 031°57'0 0.0
2015-May-06 17:29N 46°56' E 031°57'0 0.0
2015-May-06 16:32N 46°56' E 031°57'0 0.0
2015-May-06 15:33N 46°56' E 031°57'0 0.0
2015-May-06 14:33N 46°56' E 031°57'0 0.0
2015-May-06 13:33N 46°56' E 031°57'0 0.0
2015-May-06 12:32N 46°56' E 031°57'0 0.0
2015-May-06 11:32N 46°56' E 031°57'0 0.0
2015-May-06 10:29N 46°56' E 031°57'0 0.0
2015-May-06 09:32N 46°56' E 031°57'0 0.0
2015-May-06 08:32N 46°56' E 031°57'0 0.0
2015-May-06 07:28N 46°56' E 031°57'0 0.0
2015-May-06 06:31N 46°56' E 031°57'0 0.0
2015-May-06 05:31N 46°56' E 031°57'0 0.0
2015-May-06 04:31N 46°56' E 031°57'0 0.0
2015-May-06 03:31N 46°56' E 031°57'0 0.0
2015-May-06 02:31N 46°56' E 031°57'0 0.0
2015-May-06 01:33N 46°56' E 031°57'0 0.0
2015-May-06 00:33N 46°56' E 031°57'0 0.0
2015-May-05 23:31N 46°56' E 031°57'0 0.0
2015-May-05 22:31N 46°56' E 031°57'0 0.0
2015-May-05 21:31N 46°56' E 031°57'0 0.0
2015-May-05 20:32N 46°56' E 031°57'0 0.0
2015-May-05 19:32N 46°56' E 031°57'0 0.0
2015-May-05 18:28N 46°56' E 031°57'0 0.0
2015-May-05 17:32N 46°56' E 031°57'0 0.0
2015-May-05 16:32N 46°56' E 031°57'0 0.0
2015-May-05 15:32N 46°56' E 031°57'  
Track history (hours):
 
Tides and Currents Weather Stations Pressure Air Temp Water Temp Dewpoint Dewpoint Depression Visibility Wind Speed Wind Dir Waves Ship Positions

Nakhchivan

Last reported at 2015-May-15 14:33 UTC. Time now 2015-May-26 09:44 UTC.
Position N 40°36' E 018°19'.
Warning: this ship's position is 10 days out of date.

Length 139 m; draft 4.6 m.

Type: Cargo ship. MMSI: 215983000.

Date/timePositionNaut miles runAvg speedWind from/ knotsBaromVisibWave heightAir tempDewpointWater temp
2015-May-15 14:33N 40°36' E 018°19'9 9.0
2015-May-15 13:33N 40°29' E 018°26'9 9.3
2015-May-15 12:33N 40°21' E 018°33'9 9.3
2015-May-15 11:33N 40°13' E 018°39'11 9.3
2015-May-15 10:22N 40°04' E 018°46'7 8.9
2015-May-15 09:34N 39°58' E 018°51'8 8.4
2015-May-15 08:33N 39°50' E 018°57'10 9.7
2015-May-15 07:31N 39°42' E 019°04'9 9.7
2015-May-15 06:33N 39°34' E 019°10'9 9.5
2015-May-15 05:33N 39°26' E 019°16'12 9.5
2015-May-15 04:17N 39°15' E 019°24'7 9.6
2015-May-15 03:33N 39°10' E 019°30'  
2015-May-09 18:29N 46°35' E 031°25'7 7.8
2015-May-09 17:33N 46°35' E 031°36'10 8.9
2015-May-09 16:28N 46°36' E 031°50'7 8.2
2015-May-09 15:33N 46°42' E 031°56'8 7.7
2015-May-09 14:34N 46°50' E 031°56'7 6.7
2015-May-09 13:33N 46°56' E 031°59'1 1.4
2015-May-09 12:33N 46°56' E 031°57'0 0.0
2015-May-09 11:31N 46°56' E 031°57'0 0.0
2015-May-09 10:31N 46°56' E 031°57'0 0.0
2015-May-09 09:31N 46°56' E 031°57'0 0.0
2015-May-09 08:32N 46°56' E 031°57'0 0.0
2015-May-09 07:32N 46°56' E 031°57'0 0.0
2015-May-09 06:32N 46°56' E 031°57'0 0.0
2015-May-09 05:33N 46°56' E 031°57'0 0.0
2015-May-09 04:33N 46°56' E 031°57'0 0.0
2015-May-09 03:33N 46°56' E 031°57'0 0.0
2015-May-09 02:29N 46°56' E 031°57'0 0.0
2015-May-09 01:31N 46°56' E 031°57'0 0.0
2015-May-09 00:33N 46°56' E 031°57'0 0.0
2015-May-08 23:32N 46°56' E 031°57'0 0.0
2015-May-08 22:32N 46°56' E 031°57'0 0.0
2015-May-08 21:31N 46°56' E 031°57'0 0.0
2015-May-08 20:31N 46°56' E 031°57'0 0.0
2015-May-08 19:31N 46°56' E 031°57'0 0.0
2015-May-08 18:31N 46°56' E 031°57'0 0.0
2015-May-08 17:31N 46°56' E 031°57'0 0.0
2015-May-08 16:31N 46°56' E 031°57'0 0.0
2015-May-08 15:33N 46°56' E 031°57'0 0.0
2015-May-08 14:33N 46°56' E 031°57'0 0.0
2015-May-08 13:32N 46°56' E 031°57'0 0.0
2015-May-08 12:29N 46°56' E 031°57'0 0.0
2015-May-08 11:29N 46°56' E 031°57'0 0.0
2015-May-08 10:33N 46°56' E 031°57'0 0.0
2015-May-08 09:32N 46°56' E 031°57'0 0.0
2015-May-08 08:32N 46°56' E 031°57'0 0.0
2015-May-08 07:32N 46°56' E 031°57'0 0.0
2015-May-08 06:32N 46°56' E 031°57'0 0.0
2015-May-08 05:32N 46°56' E 031°57'0 0.0
2015-May-08 04:31N 46°56' E 031°57'0 0.0
2015-May-08 03:32N 46°56' E 031°57'0 0.0
2015-May-08 02:33N 46°56' E 031°57'0 0.0
2015-May-08 01:32N 46°56' E 031°57'0 0.0
2015-May-08 00:22N 46°56' E 031°57'0 0.0
2015-May-07 23:28N 46°56' E 031°57'0 0.0
2015-May-07 22:31N 46°56' E 031°57'0 0.0
2015-May-07 21:31N 46°56' E 031°57'0 0.0
2015-May-07 20:31N 46°56' E 031°57'0 0.0
2015-May-07 19:33N 46°56' E 031°57'0 0.0
2015-May-07 18:31N 46°56' E 031°57'0 0.0
2015-May-07 17:33N 46°56' E 031°57'0 0.0
2015-May-07 16:30N 46°56' E 031°57'0 0.0
2015-May-07 15:33N 46°56' E 031°57'0 0.0
2015-May-07 14:33N 46°56' E 031°57'0 0.0
2015-May-07 13:32N 46°56' E 031°57'0 0.0
2015-May-07 12:30N 46°56' E 031°57'0 0.0
2015-May-07 11:32N 46°56' E 031°57'0 0.0
2015-May-07 10:31N 46°56' E 031°57'0 0.0
2015-May-07 09:33N 46°56' E 031°57'0 0.0
2015-May-07 08:31N 46°56' E 031°57'0 0.0
2015-May-07 07:32N 46°56' E 031°57'0 0.0
2015-May-07 06:31N 46°56' E 031°57'0 0.0
2015-May-07 05:31N 46°56' E 031°57'0 0.0
2015-May-07 04:31N 46°56' E 031°57'0 0.0
2015-May-07 03:33N 46°56' E 031°57'0 0.0
2015-May-07 02:33N 46°56' E 031°57'0 0.0
2015-May-07 01:33N 46°56' E 031°57'0 0.0
2015-May-07 00:27N 46°56' E 031°57'0 0.0
2015-May-06 23:32N 46°56' E 031°57'0 0.0
2015-May-06 22:30N 46°56' E 031°57'0 0.0
2015-May-06 21:29N 46°56' E 031°57'0 0.0
2015-May-06 20:33N 46°56' E 031°57'0 0.0
2015-May-06 19:31N 46°56' E 031°57'0 0.0
2015-May-06 18:32N 46°56' E 031°57'0 0.0
2015-May-06 17:29N 46°56' E 031°57'0 0.0
2015-May-06 16:32N 46°56' E 031°57'0 0.0
2015-May-06 15:33N 46°56' E 031°57'0 0.0
2015-May-06 14:33N 46°56' E 031°57'0 0.0
2015-May-06 13:33N 46°56' E 031°57'0 0.0
2015-May-06 12:32N 46°56' E 031°57'0 0.0
2015-May-06 11:32N 46°56' E 031°57'0 0.0
2015-May-06 10:29N 46°56' E 031°57'0 0.0
2015-May-06 09:32N 46°56' E 031°57'0 0.0
2015-May-06 08:32N 46°56' E 031°57'0 0.0
2015-May-06 07:28N 46°56' E 031°57'0 0.0
2015-May-06 06:31N 46°56' E 031°57'0 0.0
2015-May-06 05:31N 46°56' E 031°57'0 0.0
2015-May-06 04:31N 46°56' E 031°57'0 0.0
2015-May-06 03:31N 46°56' E 031°57'0 0.0
2015-May-06 02:31N 46°56' E 031°57'0 0.0
2015-May-06 01:33N 46°56' E 031°57'0 0.0
2015-May-06 00:33N 46°56' E 031°57'0 0.0
2015-May-05 23:31N 46°56' E 031°57'0 0.0
2015-May-05 22:31N 46°56' E 031°57'0 0.0
2015-May-05 21:31N 46°56' E 031°57'0 0.0
2015-May-05 20:32N 46°56' E 031°57'0 0.0
2015-May-05 19:32N 46°56' E 031°57'0 0.0
2015-May-05 18:28N 46°56' E 031°57'0 0.0
2015-May-05 17:32N 46°56' E 031°57'0 0.0
2015-May-05 16:32N 46°56' E 031°57'0 0.0
2015-May-05 15:32N 46°56' E 031°57'  

Dump ship's entire track history